Time;durP1;ratioP1;P1;durP2;ratioP2;P2;SDS_P1;SDS_P2;PMS_P1;PMS_P2;Temp;Humidity;BMP_temperature;BMP_pressure;BME280_temperature;BME280_humidity;BME280_pressure;Samples;Min_cycle;Max_cycle;Signal;HPM_P1;HPM_P2
2021/12/07 00:00:22;;;;;;;21.92;11.88;;;;;;;23.06;18.19;97658.63;4988079;28;20038;-82
2021/12/07 00:02:49;;;;;;;20.02;10.43;;;;;;;23.13;18.26;97661.25;4988365;28;20486;-82
2021/12/07 00:05:16;;;;;;;23.88;12.82;;;;;;;23.14;18.12;97650.84;4986593;28;20034;-82
2021/12/07 00:07:43;;;;;;;19.45;10.95;;;;;;;22.81;18.59;97636.03;4981215;28;20035;-82
2021/12/07 00:10:14;;;;;;;17.77;10.35;;;;;;;22.13;19.13;97626.75;4970579;28;20121;-81
2021/12/07 00:12:45;;;;;;;20.80;11.05;;;;;;;22.02;19.32;97629.78;4988626;28;20042;-82
2021/12/07 00:15:16;;;;;;;21.88;12.48;;;;;;;22.23;19.19;97632.13;4988956;28;20035;-81
2021/12/07 00:17:43;;;;;;;27.20;14.27;;;;;;;22.29;19.01;97644.38;4988067;28;20136;-83
2021/12/07 00:20:15;;;;;;;27.08;14.82;;;;;;;22.50;18.98;97634.72;4984276;28;20035;-82
2021/12/07 00:22:44;;;;;;;23.60;12.52;;;;;;;22.79;18.52;97635.69;4985408;28;20054;-81
2021/12/07 00:25:11;;;;;;;22.30;12.35;;;;;;;22.93;18.53;97640.94;4983779;28;20113;-82
2021/12/07 00:27:37;;;;;;;21.45;11.73;;;;;;;23.03;18.36;97645.50;4987752;28;20035;-82
2021/12/07 00:30:09;;;;;;;24.10;12.55;;;;;;;23.04;18.31;97652.66;4977334;28;20038;-81
2021/12/07 00:32:41;;;;;;;24.25;12.95;;;;;;;22.92;18.34;97653.34;4990339;28;20038;-81
2021/12/07 00:35:34;;;;;;;21.00;11.98;;;;;;;22.97;18.37;97644.44;4988457;28;20034;-82
2021/12/07 00:38:03;;;;;;;26.92;12.05;;;;;;;23.03;18.23;97627.91;4991204;28;20037;-83
2021/12/07 00:40:29;;;;;;;22.73;11.70;;;;;;;23.07;18.29;97629.41;4990505;28;20045;-83
2021/12/07 00:42:55;;;;;;;25.35;11.88;;;;;;;23.21;18.18;97623.44;4989415;28;20464;-83
2021/12/07 00:45:22;;;;;;;23.58;11.52;;;;;;;23.44;17.98;97625.28;4990319;28;20109;-83
2021/12/07 00:47:51;;;;;;;21.90;10.95;;;;;;;23.53;17.83;97631.03;4989013;28;20495;-83
2021/12/07 00:50:20;;;;;;;22.67;10.85;;;;;;;23.54;17.86;97634.63;4989718;28;20050;-83
2021/12/07 00:52:47;;;;;;;20.55;11.18;;;;;;;23.40;17.91;97623.78;4990497;28;20027;-83
2021/12/07 00:55:19;;;;;;;21.02;11.85;;;;;;;23.45;17.95;97628.88;4990746;28;20035;-83
2021/12/07 00:57:45;;;;;;;20.80;11.45;;;;;;;23.51;17.73;97629.88;4983465;28;20031;-83
2021/12/07 01:00:15;;;;;;;18.73;9.55;;;;;;;23.52;17.81;97629.47;4990349;28;20038;-82
2021/12/07 01:02:41;;;;;;;16.92;9.55;;;;;;;23.69;17.68;97630.97;4986783;28;20493;-83
2021/12/07 01:05:16;;;;;;;21.27;9.90;;;;;;;24.14;17.38;97635.75;4986147;28;20077;-83
2021/12/07 01:26:41;;;;;;;20.90;10.10;;;;;;;23.79;17.54;97615.91;4985768;28;20475;-82
2021/12/07 01:29:07;;;;;;;22.63;11.13;;;;;;;23.57;17.62;97608.53;4993752;28;20030;-82
2021/12/07 01:31:51;;;;;;;18.77;10.32;;;;;;;23.17;18.18;97613.56;4993716;28;20133;-82
2021/12/07 01:34:46;;;;;;;20.17;11.57;;;;;;;23.09;18.27;97614.94;4985360;28;20034;-82
2021/12/07 01:37:24;;;;;;;21.23;11.68;;;;;;;23.20;18.14;97612.66;4985605;28;20053;-82
2021/12/07 01:40:20;;;;;;;19.23;11.80;;;;;;;23.54;17.86;97620.63;4981671;28;20065;-81
2021/12/07 01:43:29;;;;;;;25.00;12.55;;;;;;;23.60;17.60;97618.84;4984499;28;20177;-82
2021/12/07 01:46:23;;;;;;;23.65;12.10;;;;;;;23.26;17.87;97613.72;4985480;28;20066;-82
2021/12/07 01:51:46;;;;;;;23.35;11.75;;;;;;;23.08;18.06;97600.16;4991518;28;19944;-82
2021/12/07 01:59:54;;;;;;;20.48;10.82;;;;;;;23.39;17.85;97606.19;4986876;28;20548;-82
2021/12/07 02:02:23;;;;;;;16.48;8.98;;;;;;;23.30;17.88;97601.19;4982221;28;20065;-82
2021/12/07 02:04:50;;;;;;;17.00;9.38;;;;;;;23.61;17.62;97612.00;4988889;28;20043;-83
2021/12/07 02:07:16;;;;;;;17.70;9.13;;;;;;;23.90;17.30;97607.97;4986519;28;20049;-82
2021/12/07 02:09:47;;;;;;;18.63;9.30;;;;;;;24.02;17.35;97600.81;4988106;28;20039;-82
2021/12/07 02:12:14;;;;;;;18.83;10.35;;;;;;;24.20;16.82;97600.34;4988929;28;20042;-82
2021/12/07 02:14:41;;;;;;;18.85;9.40;;;;;;;23.48;17.64;97609.16;4988062;28;20042;-82
2021/12/07 02:17:10;;;;;;;14.27;7.93;;;;;;;21.78;19.22;97619.88;4989105;28;20437;-82
2021/12/07 02:19:37;;;;;;;17.88;10.10;;;;;;;18.82;22.40;97621.16;4985322;28;20022;-82
2021/12/07 02:22:04;;;;;;;15.50;8.55;;;;;;;18.89;22.93;97612.78;4988208;28;20050;-81
2021/12/07 02:24:31;;;;;;;12.88;7.70;;;;;;;17.93;23.76;97618.13;4986198;28;20045;-83
2021/12/07 02:26:57;;;;;;;14.52;8.02;;;;;;;15.76;26.93;97620.53;4987905;28;20474;-83
2021/12/07 02:29:23;;;;;;;15.65;9.10;;;;;;;17.53;24.65;97615.91;4984670;28;20030;-83
2021/12/07 02:31:52;;;;;;;14.13;8.07;;;;;;;16.48;25.88;97625.84;4985195;28;20037;-82
2021/12/07 02:34:18;;;;;;;15.63;8.70;;;;;;;15.98;26.49;97624.19;4984765;28;20026;-83
2021/12/07 02:36:45;;;;;;;11.93;7.05;;;;;;;16.33;26.40;97621.50;4982112;28;20034;-82
2021/12/07 02:39:12;;;;;;;13.48;7.20;;;;;;;16.36;26.05;97615.19;4986162;28;20394;-82
2021/12/07 02:41:40;;;;;;;11.35;6.95;;;;;;;15.83;26.65;97626.09;4986143;28;20035;-82
2021/12/07 02:44:07;;;;;;;12.30;7.72;;;;;;;15.63;27.49;97617.34;4969522;28;20394;-82
2021/12/07 02:46:38;;;;;;;13.25;7.70;;;;;;;15.96;26.88;97616.28;4988782;28;20502;-82
2021/12/07 02:49:07;;;;;;;15.07;7.93;;;;;;;15.76;27.24;97612.22;4968634;28;20050;-82
2021/12/07 02:51:34;;;;;;;14.30;8.55;;;;;;;15.13;27.90;97616.22;4970283;28;20088;-82
2021/12/07 02:54:00;;;;;;;12.63;8.05;;;;;;;15.82;27.23;97605.16;4986749;28;20034;-82
2021/12/07 02:56:26;;;;;;;16.40;8.15;;;;;;;16.70;25.90;97602.56;4984867;28;20481;-82
2021/12/07 02:58:58;;;;;;;12.20;7.28;;;;;;;17.69;24.29;97605.16;4989216;28;20578;-81
2021/12/07 03:01:30;;;;;;;13.40;8.15;;;;;;;17.03;24.68;97612.44;4986704;28;20497;-82
2021/12/07 03:06:44;;;;;;;11.68;7.47;;;;;;;17.39;25.05;97615.91;4986901;28;20042;-81
2021/12/07 03:28:23;;;;;;;11.57;6.30;;;;;;;16.37;25.82;97631.41;4984130;28;20042;-81
2021/12/07 03:30:49;;;;;;;12.90;7.97;;;;;;;16.76;25.70;97628.69;4986112;28;20467;-81
2021/12/07 03:33:15;;;;;;;13.88;7.97;;;;;;;16.61;26.16;97629.88;4972510;28;20026;-81
2021/12/07 03:35:41;;;;;;;12.25;7.57;;;;;;;16.05;26.51;97638.03;4986106;28;20418;-81
2021/12/07 03:38:09;;;;;;;13.13;7.60;;;;;;;16.55;26.14;97628.66;4989427;28;20096;-82
2021/12/07 03:40:36;;;;;;;13.38;7.03;;;;;;;18.04;24.25;97629.22;4985058;28;20065;-82
2021/12/07 03:43:03;;;;;;;13.55;7.47;;;;;;;18.35;23.64;97634.59;4991869;28;20054;-82
2021/12/07 03:45:34;;;;;;;13.27;7.60;;;;;;;18.38;23.62;97633.78;4987161;28;20068;-82
2021/12/07 03:48:03;;;;;;;15.63;8.05;;;;;;;16.37;26.03;97636.13;4989953;28;20397;-82
2021/12/07 03:50:30;;;;;;;15.05;8.05;;;;;;;16.38;26.47;97637.72;4986462;28;20074;-82
2021/12/07 03:52:56;;;;;;;10.88;6.53;;;;;;;17.10;25.44;97640.97;4988816;28;20042;-82
2021/12/07 03:55:22;;;;;;;11.60;7.00;;;;;;;16.54;26.09;97636.22;4985287;28;20035;-82
2021/12/07 03:57:49;;;;;;;14.02;7.38;;;;;;;15.51;27.58;97641.75;4988420;28;20039;-82
2021/12/07 04:00:19;;;;;;;15.85;7.53;;;;;;;15.38;27.76;97646.78;4985703;28;20026;-82
2021/12/07 04:02:46;;;;;;;18.90;8.98;;;;;;;15.90;27.06;97646.28;4969794;28;20177;-81
2021/12/07 04:05:17;;;;;;;14.57;7.32;;;;;;;16.51;26.40;97647.28;4988732;28;20058;-82
2021/12/07 04:07:43;;;;;;;15.75;7.80;;;;;;;16.56;25.99;97652.44;4985476;28;20027;-82
2021/12/07 04:10:12;;;;;;;16.17;8.20;;;;;;;15.67;27.45;97658.84;4988544;28;20116;-82
2021/12/07 04:12:39;;;;;;;17.27;8.30;;;;;;;15.45;28.26;97648.84;4991641;28;20030;-82
2021/12/07 04:15:08;;;;;;;14.98;7.85;;;;;;;17.70;24.97;97660.28;4987156;28;20030;-82
2021/12/07 04:17:35;;;;;;;16.65;7.85;;;;;;;19.01;22.96;97652.00;4987429;28;20046;-82
2021/12/07 04:20:04;;;;;;;17.85;8.75;;;;;;;16.16;26.59;97672.09;4990934;28;20117;-82
2021/12/07 04:22:30;;;;;;;17.88;8.90;;;;;;;16.92;25.66;97661.56;4988914;28;20057;-81
2021/12/07 04:24:56;;;;;;;16.02;7.68;;;;;;;16.97;25.48;97658.38;4987447;28;20490;-82
2021/12/07 04:27:22;;;;;;;17.23;9.02;;;;;;;16.63;25.82;97659.97;4990887;28;20080;-82
2021/12/07 04:29:48;;;;;;;15.13;7.85;;;;;;;16.29;26.63;97648.41;4991177;28;20785;-81
2021/12/07 04:32:15;;;;;;;17.38;8.55;;;;;;;16.08;27.10;97660.19;4991458;28;20030;-82
2021/12/07 04:34:41;;;;;;;18.38;9.32;;;;;;;15.48;27.81;97651.63;4992385;28;20521;-81
2021/12/07 04:37:07;;;;;;;21.23;9.25;;;;;;;15.61;27.46;97652.09;4991442;28;20032;-81
2021/12/07 04:39:33;;;;;;;19.85;8.75;;;;;;;17.25;25.33;97650.03;4984596;28;20544;-81
2021/12/07 04:41:59;;;;;;;13.02;6.68;;;;;;;17.74;24.36;97652.72;4986783;28;20035;-81
2021/12/07 04:44:25;;;;;;;19.45;9.20;;;;;;;16.44;26.02;97658.31;4987947;28;20031;-81
2021/12/07 05:00:15;;;;;;;24.25;10.80;;;;;;;14.31;29.73;97663.69;4986441;28;20035;-81
2021/12/07 05:02:45;;;;;;;19.23;8.50;;;;;;;15.84;27.41;97658.13;4989290;28;20460;-82
2021/12/07 05:05:14;;;;;;;18.25;9.88;;;;;;;15.08;28.46;97666.34;4990425;28;20026;-82
2021/12/07 05:07:47;;;;;;;17.88;9.50;;;;;;;15.81;27.63;97665.25;4992543;28;20466;-82
2021/12/07 05:10:21;;;;;;;19.95;8.90;;;;;;;16.08;27.06;97662.19;4990943;28;20072;-82
2021/12/07 05:39:47;;;;;;;21.42;9.23;;;;;;;18.76;23.14;97654.22;4990517;28;20100;-82
2021/12/07 05:42:14;;;;;;;17.35;7.95;;;;;;;19.28;22.41;97652.94;4983591;28;20037;-83
2021/12/07 05:44:40;;;;;;;19.48;8.63;;;;;;;17.89;24.26;97653.47;4988315;28;20131;-84
2021/12/07 05:47:08;;;;;;;21.20;10.40;;;;;;;17.35;24.75;97642.88;4989736;28;20034;-80
2021/12/07 05:49:35;;;;;;;17.98;8.23;;;;;;;18.00;24.24;97648.66;4982390;28;20046;-80
2021/12/07 05:52:02;;;;;;;23.48;10.85;;;;;;;16.31;26.35;97643.25;4984664;28;20030;-80
2021/12/07 05:54:28;;;;;;;20.70;10.35;;;;;;;15.79;27.13;97655.75;4986571;28;20034;-80
2021/12/07 05:56:54;;;;;;;20.58;9.95;;;;;;;16.77;25.89;97649.69;4984667;28;20038;-80
2021/12/07 05:59:20;;;;;;;21.45;9.80;;;;;;;17.24;25.26;97654.00;4985882;28;20049;-80
2021/12/07 06:01:47;;;;;;;20.80;9.13;;;;;;;16.77;25.42;97660.75;4969762;28;20525;-80
2021/12/07 06:04:13;;;;;;;23.27;9.77;;;;;;;15.13;28.09;97666.00;4987262;28;20039;-80
2021/12/07 06:06:39;;;;;;;26.63;12.30;;;;;;;14.77;28.79;97664.13;4989389;28;20080;-80
2021/12/07 06:09:06;;;;;;;22.25;10.43;;;;;;;16.00;26.83;97660.56;4989586;28;20065;-79
2021/12/07 06:11:32;;;;;;;20.10;10.32;;;;;;;15.02;28.14;97675.38;4987897;28;20050;-80
2021/12/07 06:13:58;;;;;;;24.00;10.70;;;;;;;16.50;26.39;97668.63;4988540;28;20088;-80
2021/12/07 06:16:29;;;;;;;22.92;10.35;;;;;;;18.24;23.95;97667.19;4988402;28;20088;-80
2021/12/07 06:18:56;;;;;;;22.63;9.95;;;;;;;17.52;23.91;97664.28;4989936;28;20498;-80
2021/12/07 06:21:22;;;;;;;18.48;8.82;;;;;;;18.26;23.48;97661.22;4983993;28;20387;-81
2021/12/07 06:23:48;;;;;;;17.70;9.15;;;;;;;19.40;22.05;97654.47;4989806;28;20034;-80
2021/12/07 06:26:14;;;;;;;18.45;9.23;;;;;;;19.99;20.98;97657.78;4986339;28;20038;-80
2021/12/07 06:28:40;;;;;;;24.65;9.27;;;;;;;20.61;20.43;97660.16;4988990;28;20034;-82
2021/12/07 06:31:06;;;;;;;17.48;8.52;;;;;;;20.33;20.41;97655.78;4990712;28;20034;-81
2021/12/07 06:33:32;;;;;;;17.60;8.40;;;;;;;19.18;21.88;97658.63;4992746;28;20038;-81
2021/12/07 06:36:02;;;;;;;21.85;10.68;;;;;;;18.46;22.75;97674.25;4991483;28;20510;-81
2021/12/07 06:38:31;;;;;;;18.50;9.13;;;;;;;17.46;23.81;97668.63;4993096;28;20108;-81
2021/12/07 06:40:58;;;;;;;23.55;11.50;;;;;;;16.54;25.19;97672.22;4994287;28;20031;-81
2021/12/07 06:43:24;;;;;;;21.10;10.23;;;;;;;18.56;23.01;97669.81;4993301;28;20044;-80
2021/12/07 06:45:51;;;;;;;18.40;8.30;;;;;;;19.49;21.55;97676.25;4987419;28;20549;-80
2021/12/07 06:48:18;;;;;;;20.27;9.57;;;;;;;18.96;22.13;97685.84;4988471;28;20058;-81
2021/12/07 06:50:44;;;;;;;20.48;9.63;;;;;;;17.83;23.43;97682.84;4992087;28;20085;-81
2021/12/07 06:53:11;;;;;;;18.30;9.15;;;;;;;19.07;22.02;97692.09;4991835;28;20113;-81
2021/12/07 06:55:37;;;;;;;20.95;9.63;;;;;;;19.44;21.55;97694.19;4988054;28;20037;-81
2021/12/07 06:58:04;;;;;;;20.55;9.25;;;;;;;18.68;22.46;97694.38;4990143;28;20066;-82
2021/12/07 07:00:32;;;;;;;16.63;8.48;;;;;;;19.85;21.36;97691.38;4991662;28;20057;-81
2021/12/07 07:02:58;;;;;;;22.83;10.25;;;;;;;20.08;20.89;97697.09;4991833;28;20085;-81
2021/12/07 07:05:24;;;;;;;18.90;9.02;;;;;;;18.56;22.44;97705.97;4993908;28;20038;-81
2021/12/07 07:07:50;;;;;;;19.27;7.80;;;;;;;19.26;21.96;97691.53;4990970;28;20027;-81
2021/12/07 07:10:18;;;;;;;25.58;10.95;;;;;;;17.08;24.54;97701.56;4994120;28;20462;-81
2021/12/07 07:12:45;;;;;;;26.60;11.27;;;;;;;17.46;24.19;97699.16;4992738;28;20031;-81
2021/12/07 07:15:12;;;;;;;24.33;10.45;;;;;;;17.69;23.92;97705.13;4975654;28;20042;-82
2021/12/07 07:17:39;;;;;;;28.38;11.75;;;;;;;16.58;25.12;97708.25;4975566;28;20030;-81
2021/12/07 07:20:09;;;;;;;26.08;11.10;;;;;;;15.70;26.76;97717.00;4992027;28;20038;-81
2021/12/07 07:22:35;;;;;;;27.00;10.95;;;;;;;14.84;28.05;97718.69;4992168;28;20088;-81
2021/12/07 07:25:03;;;;;;;25.00;12.02;;;;;;;15.45;27.00;97720.78;4993743;28;20070;-82
2021/12/07 07:27:29;;;;;;;21.63;10.25;;;;;;;16.06;26.13;97717.13;4992561;28;20035;-81
2021/12/07 07:29:55;;;;;;;27.05;10.45;;;;;;;15.71;26.82;97724.09;4993268;28;20050;-81
2021/12/07 07:32:21;;;;;;;23.90;11.10;;;;;;;17.24;24.77;97715.84;4996665;28;20045;-81
2021/12/07 07:34:47;;;;;;;25.98;10.25;;;;;;;17.95;23.78;97722.09;4996196;28;20030;-81
2021/12/07 07:37:13;;;;;;;24.45;10.07;;;;;;;18.74;22.88;97725.34;4997423;28;20050;-81
2021/12/07 07:39:41;;;;;;;26.05;10.63;;;;;;;19.03;22.24;97721.16;4978247;28;20442;-81
2021/12/07 07:42:08;;;;;;;22.10;10.15;;;;;;;18.73;22.42;97724.53;4996597;28;20038;-81
2021/12/07 07:44:34;;;;;;;23.13;8.80;;;;;;;17.02;24.82;97724.53;4971424;28;20390;-81
2021/12/07 07:47:00;;;;;;;21.95;10.13;;;;;;;17.17;24.70;97718.63;4993814;28;20474;-81
2021/12/07 07:49:26;;;;;;;23.90;10.60;;;;;;;17.46;24.37;97730.47;4995808;28;20043;-81
2021/12/07 07:51:52;;;;;;;24.63;11.95;;;;;;;16.42;25.53;97729.94;4996599;28;20129;-81
2021/12/07 07:54:18;;;;;;;25.60;10.70;;;;;;;15.96;26.42;97720.66;4995927;28;20026;-81
2021/12/07 07:56:44;;;;;;;20.13;8.27;;;;;;;17.85;23.98;97722.91;4996376;28;20117;-81
2021/12/07 07:59:11;;;;;;;25.13;11.18;;;;;;;18.02;23.46;97718.47;4997234;28;20035;-81
2021/12/07 08:01:37;;;;;;;22.35;10.40;;;;;;;19.05;22.02;97727.88;4996095;28;20122;-81
2021/12/07 08:04:04;;;;;;;25.70;10.95;;;;;;;17.56;23.90;97732.50;4997199;28;20035;-81
2021/12/07 08:06:31;;;;;;;24.00;10.95;;;;;;;17.77;23.94;97726.91;4993866;28;20038;-81
2021/12/07 08:08:57;;;;;;;21.83;9.70;;;;;;;16.58;25.44;97722.09;4996267;28;20113;-81
2021/12/07 08:11:24;;;;;;;22.35;10.68;;;;;;;16.74;25.47;97719.75;4994349;28;20038;-81
2021/12/07 08:13:50;;;;;;;26.13;11.93;;;;;;;17.46;24.43;97724.13;4997040;28;20081;-81
2021/12/07 08:16:16;;;;;;;18.95;10.02;;;;;;;18.79;22.76;97719.31;4996049;28;20048;-81
2021/12/07 08:18:44;;;;;;;27.92;11.65;;;;;;;18.74;22.65;97722.56;4996377;28;20039;-81
2021/12/07 08:21:10;;;;;;;22.27;10.27;;;;;;;17.50;24.12;97722.16;4995141;28;20043;-81
2021/12/07 08:23:36;;;;;;;31.67;13.73;;;;;;;16.33;25.97;97724.00;4996910;28;20474;-81
2021/12/07 08:26:03;;;;;;;23.80;11.70;;;;;;;17.28;24.70;97722.19;4977866;28;20486;-81
2021/12/07 08:28:30;;;;;;;24.45;12.25;;;;;;;16.18;26.13;97722.34;4996455;28;20555;-81
2021/12/07 08:30:56;;;;;;;28.27;13.07;;;;;;;16.30;26.14;97727.53;4995337;28;20053;-81
2021/12/07 08:33:22;;;;;;;26.58;12.38;;;;;;;15.97;26.69;97727.78;4994953;28;20042;-81
2021/12/07 08:35:48;;;;;;;28.65;13.68;;;;;;;16.86;25.12;97730.47;4993545;28;20360;-81
2021/12/07 08:38:14;;;;;;;30.98;12.77;;;;;;;17.53;24.28;97721.38;4993890;28;20037;-81
2021/12/07 08:40:42;;;;;;;24.52;11.80;;;;;;;17.52;24.17;97720.59;4994635;28;20490;-81
2021/12/07 08:43:11;;;;;;;26.42;12.18;;;;;;;17.53;24.10;97718.59;4988193;28;20039;-81
2021/12/07 08:45:40;;;;;;;28.40;13.25;;;;;;;17.04;24.97;97725.72;4994991;28;20050;-81
2021/12/07 08:48:08;;;;;;;25.20;12.55;;;;;;;15.54;26.91;97729.53;4994738;28;20049;-81
2021/12/07 08:50:34;;;;;;;34.80;14.98;;;;;;;15.11;27.96;97731.16;4993065;28;20038;-81
2021/12/07 08:53:07;;;;;;;29.48;13.20;;;;;;;14.33;29.06;97735.91;4995619;28;20382;-81
2021/12/07 09:01:05;;;;;;;33.55;14.02;;;;;;;13.88;29.98;97730.59;4995246;28;20064;-81
2021/12/07 09:03:32;;;;;;;33.42;14.15;;;;;;;13.11;30.87;97733.00;4995914;28;20089;-81
2021/12/07 09:05:58;;;;;;;35.85;15.07;;;;;;;13.35;30.76;97729.06;4994870;28;20117;-81
2021/12/07 09:08:25;;;;;;;34.38;14.90;;;;;;;13.61;30.67;97734.53;4994745;28;20066;-81
2021/12/07 09:10:51;;;;;;;30.05;14.20;;;;;;;14.38;29.48;97735.56;4994152;28;20030;-81
2021/12/07 09:13:19;;;;;;;27.08;14.43;;;;;;;14.17;29.65;97737.25;4995221;28;20038;-81
2021/12/07 09:15:46;;;;;;;33.88;14.55;;;;;;;13.93;29.93;97735.00;4995142;28;20031;-81
2021/12/07 09:18:12;;;;;;;31.92;15.30;;;;;;;13.72;30.01;97736.28;4995649;28;20042;-82
2021/12/07 09:20:38;;;;;;;27.75;13.40;;;;;;;14.83;28.97;97728.94;4975130;28;20100;-81
2021/12/07 09:23:05;;;;;;;29.83;13.13;;;;;;;14.82;28.33;97724.56;4995548;28;20486;-81
2021/12/07 09:25:31;;;;;;;31.52;15.80;;;;;;;14.79;28.53;97732.84;4994958;28;20482;-81
2021/12/07 09:27:58;;;;;;;31.02;14.60;;;;;;;15.38;27.68;97729.00;4993219;28;20033;-81
2021/12/07 09:30:24;;;;;;;30.63;13.93;;;;;;;15.63;27.17;97736.31;4994081;28;20035;-81
2021/12/07 09:32:51;;;;;;;33.05;15.35;;;;;;;14.21;29.09;97741.63;4987392;28;20482;-82
2021/12/07 09:35:17;;;;;;;31.92;14.27;;;;;;;13.63;30.23;97738.50;4991836;28;20397;-81
2021/12/07 09:37:44;;;;;;;31.70;15.00;;;;;;;14.02;29.74;97738.25;4994211;28;20098;-81
2021/12/07 09:40:14;;;;;;;28.35;13.88;;;;;;;14.63;29.16;97740.56;4994738;28;20042;-81
2021/12/07 09:42:41;;;;;;;26.88;13.25;;;;;;;17.12;25.44;97729.31;4983786;28;20070;-81
2021/12/07 09:45:11;;;;;;;25.90;13.05;;;;;;;17.39;24.62;97727.72;4976464;28;20435;-81
2021/12/07 09:47:38;;;;;;;27.75;13.80;;;;;;;16.01;26.44;97731.38;4995609;28;20116;-81
2021/12/07 09:50:07;;;;;;;31.83;14.70;;;;;;;14.99;27.76;97732.22;4993497;28;20042;-81
2021/12/07 09:52:33;;;;;;;34.33;15.82;;;;;;;14.13;29.33;97733.66;4994618;28;20478;-81
2021/12/07 09:54:59;;;;;;;32.17;15.52;;;;;;;15.79;27.15;97730.47;4992607;28;20038;-81
2021/12/07 09:57:25;;;;;;;33.40;15.23;;;;;;;15.39;27.42;97736.91;4993783;28;20089;-81
2021/12/07 09:59:52;;;;;;;34.28;16.50;;;;;;;16.25;26.29;97731.47;4995074;28;20117;-81
2021/12/07 10:02:18;;;;;;;39.38;16.95;;;;;;;16.45;25.93;97729.94;4994545;28;20041;-81
2021/12/07 10:04:45;;;;;;;32.08;14.55;;;;;;;17.46;24.34;97724.94;4991132;28;20121;-81
2021/12/07 10:07:11;;;;;;;32.60;16.05;;;;;;;14.67;28.50;97731.16;4993843;28;20034;-81
2021/12/07 10:09:39;;;;;;;32.85;15.35;;;;;;;13.91;30.08;97737.34;4991141;28;20035;-81
2021/12/07 10:12:06;;;;;;;32.55;15.15;;;;;;;14.52;29.16;97740.44;4995087;28;20425;-81
2021/12/07 10:14:39;;;;;;;31.42;15.30;;;;;;;16.30;26.42;97733.88;4993903;28;20038;-81
2021/12/07 10:17:06;;;;;;;24.88;13.00;;;;;;;17.24;24.93;97734.47;4992314;28;20035;-81
2021/12/07 10:19:35;;;;;;;25.60;12.32;;;;;;;17.56;24.18;97726.13;4993102;28;20556;-81
2021/12/07 10:22:15;;;;;;;25.95;13.18;;;;;;;16.71;25.17;97728.09;4994367;28;20034;-81
2021/12/07 10:24:49;;;;;;;28.63;13.63;;;;;;;16.83;24.84;97734.03;4982193;28;20031;-81
2021/12/07 10:27:34;;;;;;;24.85;12.15;;;;;;;17.12;24.66;97726.53;4992306;28;20041;-81
2021/12/07 10:30:03;;;;;;;27.67;12.88;;;;;;;17.75;24.13;97737.63;4993756;28;20027;-81
2021/12/07 10:32:30;;;;;;;24.65;11.30;;;;;;;19.24;22.36;97726.56;4994700;28;20043;-81
2021/12/07 10:34:56;;;;;;;23.88;12.20;;;;;;;18.94;22.37;97731.94;4992783;28;20030;-81
2021/12/07 10:37:22;;;;;;;22.83;11.20;;;;;;;18.44;22.93;97729.44;4991596;28;20486;-81
2021/12/07 10:39:51;;;;;;;26.10;12.90;;;;;;;17.89;23.27;97734.81;4994201;28;20022;-81
2021/12/07 10:42:30;;;;;;;23.80;11.43;;;;;;;18.37;22.91;97726.69;4974904;28;20038;-81
2021/12/07 10:45:00;;;;;;;22.58;11.15;;;;;;;19.05;22.16;97725.09;4975988;28;20034;-81
2021/12/07 10:47:27;;;;;;;26.48;13.02;;;;;;;18.23;22.69;97731.50;4982942;28;20038;-81
2021/12/07 10:50:03;;;;;;;24.90;11.20;;;;;;;18.07;23.49;97731.16;4983751;28;20042;-81
2021/12/07 10:52:35;;;;;;;24.42;11.27;;;;;;;18.41;22.61;97738.56;4985298;28;20054;-81
2021/12/07 10:55:16;;;;;;;19.13;10.27;;;;;;;19.69;21.32;97725.38;4988166;28;20386;-81
2021/12/07 10:57:47;;;;;;;24.92;12.27;;;;;;;16.89;24.64;97726.13;4994197;28;20038;-81
2021/12/07 11:00:23;;;;;;;27.48;13.25;;;;;;;15.05;27.18;97727.16;4992891;28;20046;-81
2021/12/07 11:03:06;;;;;;;25.23;12.32;;;;;;;15.65;26.66;97727.63;4994067;28;20126;-80
2021/12/07 11:05:34;;;;;;;21.33;9.38;;;;;;;16.04;26.45;97725.84;4992418;28;20026;-81
2021/12/07 11:08:02;;;;;;;20.90;12.15;;;;;;;16.03;26.62;97734.56;4992890;28;20126;-81
2021/12/07 11:10:32;;;;;;;23.25;12.68;;;;;;;17.94;23.96;97734.41;4989167;28;20023;-81
2021/12/07 11:13:08;;;;;;;21.67;11.25;;;;;;;18.48;23.03;97735.78;4993117;28;20080;-80
2021/12/07 11:15:48;;;;;;;20.42;10.10;;;;;;;18.04;23.66;97745.88;4992674;28;20497;-81
2021/12/07 11:18:15;;;;;;;25.35;12.57;;;;;;;17.94;23.77;97736.38;4988890;28;20485;-81
2021/12/07 11:20:41;;;;;;;23.67;12.18;;;;;;;18.72;22.79;97741.63;4980823;28;20034;-81
2021/12/07 11:23:16;;;;;;;23.77;10.82;;;;;;;19.11;22.22;97734.59;4974365;28;20039;-81
2021/12/07 11:31:50;;;;;;;19.27;10.05;;;;;;;17.74;23.41;97738.78;4992466;28;20402;-81
2021/12/07 11:34:19;;;;;;;23.95;11.88;;;;;;;15.78;26.08;97737.97;4993306;28;20050;-81
2021/12/07 11:36:53;;;;;;;23.15;11.73;;;;;;;14.31;28.74;97743.78;4992652;28;20061;-81
2021/12/07 11:39:31;;;;;;;24.08;11.30;;;;;;;15.35;26.94;97738.84;4987806;28;20070;-81
2021/12/07 11:42:04;;;;;;;23.65;11.80;;;;;;;16.00;26.19;97730.59;4989172;28;20088;-81
2021/12/07 11:44:34;;;;;;;22.45;11.32;;;;;;;16.91;24.40;97729.28;4992947;28;20034;-81
2021/12/07 11:47:02;;;;;;;23.20;11.75;;;;;;;15.58;26.28;97733.91;4992827;28;20046;-81
2021/12/07 11:49:31;;;;;;;28.02;11.15;;;;;;;14.95;26.72;97738.91;4974775;28;20042;-81
2021/12/07 11:52:00;;;;;;;22.05;10.27;;;;;;;15.49;26.59;97738.19;4993224;28;20505;-81
2021/12/07 11:54:30;;;;;;;27.63;12.55;;;;;;;16.69;24.71;97738.75;4992637;28;20026;-81
2021/12/07 11:56:58;;;;;;;21.77;11.20;;;;;;;16.90;23.91;97730.47;4993106;28;20038;-81
2021/12/07 11:59:24;;;;;;;22.95;11.02;;;;;;;16.94;24.12;97732.06;4993809;28;20034;-81
2021/12/07 12:01:51;;;;;;;19.85;9.80;;;;;;;17.88;23.14;97740.75;4989806;28;20465;-81
2021/12/07 12:04:19;;;;;;;24.65;11.13;;;;;;;16.59;24.69;97741.09;4993743;28;20030;-81
2021/12/07 12:06:51;;;;;;;27.35;11.80;;;;;;;16.63;24.86;97743.09;4991189;28;20062;-81
2021/12/07 12:09:18;;;;;;;25.17;12.20;;;;;;;16.07;25.71;97746.44;4985302;28;20386;-81
2021/12/07 12:11:58;;;;;;;25.42;12.32;;;;;;;16.60;24.50;97744.66;4989662;28;20070;-81
2021/12/07 12:15:00;;;;;;;23.58;11.98;;;;;;;18.19;22.90;97745.41;4988656;28;20039;-81
2021/12/07 12:17:52;;;;;;;24.52;11.00;;;;;;;16.66;24.77;97754.22;4981307;28;20097;-81
2021/12/07 12:20:31;;;;;;;22.88;11.63;;;;;;;17.13;24.10;97745.53;4973567;28;20483;-81
2021/12/07 12:23:23;;;;;;;28.25;12.10;;;;;;;16.25;24.98;97753.63;4991165;28;20409;-81
2021/12/07 12:25:57;;;;;;;26.20;13.57;;;;;;;17.41;23.86;97743.97;4978425;28;20030;-81
2021/12/07 12:28:26;;;;;;;19.48;10.82;;;;;;;18.57;22.28;97740.91;4995626;28;20030;-81
2021/12/07 12:30:53;;;;;;;21.05;11.77;;;;;;;18.53;22.03;97737.34;4994914;28;20037;-81
2021/12/07 12:33:19;;;;;;;26.27;12.93;;;;;;;17.33;23.47;97731.28;4979278;28;20061;-81
2021/12/07 12:35:54;;;;;;;22.38;11.25;;;;;;;18.30;22.42;97731.47;4995625;28;20054;-81
2021/12/07 12:38:30;;;;;;;19.88;11.00;;;;;;;19.05;21.79;97741.81;4985895;28;20034;-81
2021/12/07 12:41:08;;;;;;;18.90;9.77;;;;;;;18.76;21.83;97737.63;4995148;28;20022;-81
2021/12/07 12:43:54;;;;;;;24.98;12.10;;;;;;;17.24;23.35;97735.28;4995806;28;20042;-81
2021/12/07 12:46:26;;;;;;;28.05;12.40;;;;;;;17.05;23.87;97743.97;4987404;28;20065;-81
2021/12/07 12:48:55;;;;;;;23.77;11.02;;;;;;;18.06;22.78;97747.06;4993936;28;20035;-81
2021/12/07 12:51:23;;;;;;;23.45;11.45;;;;;;;17.60;23.35;97744.38;4996503;28;20042;-81
2021/12/07 12:53:52;;;;;;;23.48;11.77;;;;;;;17.86;22.99;97751.47;4993840;28;20486;-81
2021/12/07 12:56:24;;;;;;;24.55;11.55;;;;;;;18.70;21.82;97749.56;4995146;28;20049;-81
2021/12/07 12:58:54;;;;;;;22.38;11.07;;;;;;;19.48;21.24;97739.50;4994827;28;20076;-81
2021/12/07 13:01:34;;;;;;;18.33;9.82;;;;;;;20.23;20.17;97742.34;4976476;28;20081;-81
2021/12/07 13:04:23;;;;;;;23.20;10.45;;;;;;;19.27;20.73;97750.78;4996082;28;20034;-81
2021/12/07 13:07:39;;;;;;;21.95;10.85;;;;;;;20.12;20.17;97747.22;4993913;28;20069;-81
2021/12/07 13:09:46;;;;;;;20.88;9.85;;;;;;;21.11;19.19;97753.13;4971770;28;20042;-81